Saint-François-de-Laval (Laval Aviation)

CA-0463 · Quebec, 加拿大

罗盘
风向 的 风向 180° Saint-François-de-Laval (Laval Aviation) 1/19
风: 4 kt, 2 beaufort

4 kt

改变
0 ft 1.000 2.000 3.000 4.000 5.000
没有云
METAR CYHU 011300Z AUTO 18004KT 9SM CLR M10/M15 A3050 RMK SLP331

METAR Saint-François-de-Laval (Laval Aviation) - CA-0463

Saint-François-de-Laval (Laval Aviation)是,加拿大中的小机场。 该机场位于纬度45,68610和经度-73,58115。 该机场有一条跑道: 1/19. 这个机场没有ICAO代码,我们使用CA-0463作为参考。 机场在Montreal FIR中。

该航空气象观测是针对Montréal / Saint-Hubert Airport在2024年3月1日 08:00, 当地时间进行的。

机场观察

风向为180°,速度为4 kt。

可见度为9 mi。

有没有云。 没有观察到天花板。

温度为-10 °C,阵风为-17 °C。 露点为-15 °C,相对湿度为67%。 海平面上的气压为30,50 inHg (QNH)。

白天

今天,太阳从06:31升起,在17:41降落。 这适用于Saint-François-de-Laval (Laval Aviation),世界夏令时可能有所不同。 当地时间与世界标准时间之间的时差为-5 小时。 当前,没有夏令时有效。

公司介绍

我们没有关于这个机场的公司信息。

体会

到Vliegles.nl去找飞行课程,跳伞和其他飞行体验。 浏览页面,了解Saint-François-de-Laval (Laval Aviation)附近所有可用的活动。 你也可以使用搜索功能来寻找你所在地附近的特定飞行课程、跳伞或其他飞行体验。

跑道

Id 标题 侧风 逆风 侧风 %
1/19 360°-180° 4 kt 0 %

逆风成分最大的方向会被突出显示,并用于横风计算。 这并不一定意味着这个方向在使用。

乌云

- CLR 没有云

温度 & 天气

温度 -10 °C
露点 -15 °C
相对湿度 67%
风寒 -17 °C
Kp-index 0 (0-9)

评论

SLP331海平面压力为30,51 inHg (30,51 inHg)

白天

日出
06:30
中午
12:05
日落
17:41 (9:18)

小工具

你想在你的网站上有一个关于Saint-François-de-Laval (Laval Aviation)的当前航空天气(METAR)的小部件吗?

显示HTML代码
?>